Time;durP1;ratioP1;P1;durP2;ratioP2;P2;SDS_P1;SDS_P2;PMS_P1;PMS_P2;Temp;Humidity;BMP_temperature;BMP_pressure;BME280_temperature;BME280_humidity;BME280_pressure;Samples;Min_cycle;Max_cycle;Signal;HPM_P1;HPM_P2
2023/03/24 00:25:17;;;;;;;;;;;;;;;;;;;;;
2023/03/24 00:59:41;;;;;;;;;;;13.50;99.90;;;;;;6123856;23;20350;-84
2023/03/24 01:02:12;;;;;;;;;;;13.40;99.90;;;;;;6100374;23;19915;-84
2023/03/24 01:04:40;;;;;;;;;;;13.50;99.90;;;;;;6098877;23;19924;-84
2023/03/24 01:07:10;;;;;;;;;;;13.40;99.90;;;;;;6098717;23;19905;-84
2023/03/24 01:09:36;;;;;;;;;;;13.40;99.90;;;;;;6098469;23;19933;-84
2023/03/24 01:12:03;;;;;;;;;;;13.50;99.90;;;;;;6121508;23;19905;-84
2023/03/24 01:14:34;;;;;;;;;;;13.50;99.90;;;;;;6124966;23;19905;-84
2023/03/24 01:17:05;;;;;;;;;;;13.50;99.90;;;;;;6098519;23;19909;-84
2023/03/24 01:19:38;;;;;;;;;;;13.50;99.90;;;;;;6098370;23;19905;-84
2023/03/24 01:22:04;;;;;;;;;;;13.50;99.90;;;;;;6097934;23;19909;-84
2023/03/24 01:24:30;;;;;;;;;;;13.60;99.90;;;;;;6098418;23;19916;-85
2023/03/24 01:26:58;;;;;;;;;;;13.70;99.90;;;;;;6097880;23;19963;-84
2023/03/24 01:29:23;;;;;;;;;;;13.70;99.90;;;;;;6098243;23;19909;-84
2023/03/24 01:31:51;;;;;;;;;;;13.80;99.90;;;;;;6097817;23;19905;-84
2023/03/24 01:34:17;;;;;;;;;;;13.80;99.90;;;;;;6101186;23;19987;-84
2023/03/24 01:36:52;;;;;;;;;;;13.80;99.90;;;;;;6098302;23;20302;-84
2023/03/24 01:39:21;;;;;;;;;;;13.90;99.90;;;;;;6123611;23;19958;-84
2023/03/24 01:41:50;;;;;;;;;;;14.00;99.90;;;;;;6097593;23;19940;-84
2023/03/24 01:44:45;;;;;;;;;;;13.90;99.90;;;;;;6097756;23;19909;-84
2023/03/24 01:47:13;;;;;;;;;;;13.80;99.90;;;;;;6079663;23;20412;-84
2023/03/24 01:49:50;;;;;;;;;;;13.70;99.90;;;;;;6098078;23;20319;-84
2023/03/24 01:52:42;;;;;;;;;;;13.70;99.90;;;;;;6098086;23;19912;-84
2023/03/24 01:55:14;;;;;;;;;;;13.60;99.90;;;;;;6122075;23;19909;-84
2023/03/24 01:57:48;;;;;;;;;;;13.60;99.90;;;;;;6124472;23;20254;-84
2023/03/24 02:00:20;;;;;;;;;;;13.60;99.90;;;;;;6123628;23;19920;-84
2023/03/24 02:02:53;;;;;;;;;;;13.70;99.90;;;;;;6097101;23;19912;-84
2023/03/24 02:05:20;;;;;;;;;;;13.70;99.90;;;;;;6123276;23;19951;-84
2023/03/24 02:07:46;;;;;;;;;;;13.70;99.90;;;;;;6097716;23;19905;-84
2023/03/24 02:10:15;;;;;;;;;;;13.70;99.90;;;;;;6097527;23;20194;-84
2023/03/24 02:12:42;;;;;;;;;;;13.80;99.90;;;;;;6097189;23;19912;-84
2023/03/24 02:15:16;;;;;;;;;;;13.80;99.90;;;;;;6098086;23;19912;-84
2023/03/24 02:18:04;;;;;;;;;;;13.80;99.90;;;;;;6100396;23;19905;-84
2023/03/24 02:20:33;;;;;;;;;;;13.80;99.90;;;;;;6128506;23;20322;-84
2023/03/24 02:23:25;;;;;;;;;;;13.80;99.90;;;;;;6101464;23;19912;-84
2023/03/24 02:26:09;;;;;;;;;;;13.90;99.90;;;;;;6127900;23;20349;-84
2023/03/24 02:28:54;;;;;;;;;;;13.80;99.90;;;;;;6101371;23;19959;-84
2023/03/24 02:31:29;;;;;;;;;;;13.90;99.90;;;;;;6101428;23;20281;-85
2023/03/24 02:34:04;;;;;;;;;;;14.00;99.90;;;;;;6128124;23;19988;-84
2023/03/24 02:36:48;;;;;;;;;;;14.00;99.90;;;;;;6127307;23;19905;-84
2023/03/24 02:39:36;;;;;;;;;;;14.10;99.90;;;;;;6101182;23;19905;-84
2023/03/24 02:42:04;;;;;;;;;;;14.10;99.90;;;;;;6100450;23;19912;-84
2023/03/24 02:44:35;;;;;;;;;;;14.10;99.90;;;;;;6100643;23;19924;-84
2023/03/24 02:47:04;;;;;;;;;;;14.20;99.90;;;;;;6127377;23;19905;-84
2023/03/24 02:49:59;;;;;;;;;;;14.20;99.90;;;;;;6126713;23;19905;-84
2023/03/24 02:52:45;;;;;;;;;;;14.30;99.90;;;;;;6081984;23;20233;-84
2023/03/24 02:55:19;;;;;;;;;;;14.40;99.90;;;;;;6100823;23;19905;-85
2023/03/24 02:57:57;;;;;;;;;;;14.40;99.90;;;;;;6101073;23;19905;-84
2023/03/24 03:00:31;;;;;;;;;;;14.50;99.90;;;;;;6125083;23;19991;-85
2023/03/24 03:03:08;;;;;;;;;;;14.60;99.90;;;;;;6100130;23;19984;-84
2023/03/24 03:05:45;;;;;;;;;;;14.50;99.90;;;;;;6126266;23;20334;-84
2023/03/24 03:08:13;;;;;;;;;;;14.50;99.90;;;;;;6126642;23;20279;-84
2023/03/24 03:10:41;;;;;;;;;;;14.60;99.90;;;;;;6100070;23;19913;-84
2023/03/24 03:13:14;;;;;;;;;;;14.60;99.90;;;;;;6098754;23;20326;-84
2023/03/24 03:15:45;;;;;;;;;;;14.70;99.90;;;;;;6121328;23;20262;-84
2023/03/24 03:18:17;;;;;;;;;;;14.70;99.90;;;;;;6120565;23;19905;-84
2023/03/24 03:20:49;;;;;;;;;;;14.70;99.90;;;;;;6096744;23;19909;-84
2023/03/24 03:23:17;;;;;;;;;;;14.60;99.90;;;;;;6121997;23;19908;-84
2023/03/24 03:25:49;;;;;;;;;;;14.60;99.90;;;;;;6120750;23;19911;-84
2023/03/24 03:28:19;;;;;;;;;;;14.50;99.90;;;;;;6122180;23;19905;-84
2023/03/24 03:30:56;;;;;;;;;;;14.40;99.90;;;;;;6096365;23;20310;-84
2023/03/24 03:33:24;;;;;;;;;;;14.50;99.90;;;;;;6095780;23;19905;-84
2023/03/24 03:36:02;;;;;;;;;;;14.50;99.90;;;;;;6095965;23;19986;-84
2023/03/24 03:38:34;;;;;;;;;;;14.60;99.90;;;;;;6122046;23;19931;-84
2023/03/24 03:41:01;;;;;;;;;;;14.70;99.90;;;;;;6121879;23;19990;-84
2023/03/24 03:43:27;;;;;;;;;;;14.80;99.90;;;;;;6095888;23;19905;-84
2023/03/24 03:45:53;;;;;;;;;;;14.80;99.90;;;;;;6095921;23;19905;-84
2023/03/24 03:48:18;;;;;;;;;;;14.80;99.90;;;;;;6096006;23;19905;-84
2023/03/24 03:50:44;;;;;;;;;;;14.90;99.90;;;;;;6120252;23;20231;-84
2023/03/24 03:53:12;;;;;;;;;;;14.80;99.90;;;;;;6121723;23;19912;-84
2023/03/24 03:55:37;;;;;;;;;;;14.80;99.90;;;;;;6121457;23;20242;-84
2023/03/24 03:58:06;;;;;;;;;;;14.90;99.90;;;;;;6121661;23;19980;-84
2023/03/24 04:00:33;;;;;;;;;;;14.90;99.90;;;;;;6121651;23;19959;-84
2023/03/24 04:03:05;;;;;;;;;;;15.00;99.90;;;;;;6095400;23;19905;-84
2023/03/24 04:05:49;;;;;;;;;;;15.00;99.90;;;;;;6121573;23;19948;-83
2023/03/24 04:08:17;;;;;;;;;;;15.10;99.90;;;;;;6095875;23;19905;-84
2023/03/24 04:10:55;;;;;;;;;;;15.10;99.90;;;;;;6095503;23;19909;-84
2023/03/24 04:13:46;;;;;;;;;;;15.10;99.90;;;;;;6121490;23;19950;-84
2023/03/24 04:16:21;;;;;;;;;;;15.10;99.90;;;;;;6121542;23;19912;-85
2023/03/24 04:18:51;;;;;;;;;;;15.10;99.90;;;;;;6121831;23;19905;-84
2023/03/24 04:21:17;;;;;;;;;;;15.10;99.90;;;;;;6119319;23;19912;-84
2023/03/24 04:23:44;;;;;;;;;;;15.10;99.90;;;;;;6121253;23;20326;-85
2023/03/24 04:26:29;;;;;;;;;;;15.10;99.90;;;;;;6095502;23;19905;-84
2023/03/24 04:29:07;;;;;;;;;;;15.10;99.90;;;;;;6095035;23;20323;-83
2023/03/24 04:31:36;;;;;;;;;;;14.90;99.90;;;;;;6119231;23;19915;-83
2023/03/24 04:34:08;;;;;;;;;;;14.70;99.90;;;;;;6121315;23;19955;-83
2023/03/24 04:36:49;;;;;;;;;;;14.60;99.90;;;;;;6095137;23;19909;-83
2023/03/24 04:39:24;;;;;;;;;;;14.30;99.90;;;;;;6095296;23;19905;-83
2023/03/24 04:41:51;;;;;;;;;;;14.10;99.90;;;;;;6095279;23;20121;-83
2023/03/24 04:44:20;;;;;;;;;;;13.90;99.90;;;;;;6095278;23;19916;-84
2023/03/24 04:46:48;;;;;;;;;;;13.80;99.90;;;;;;6121416;23;19905;-83
2023/03/24 04:49:13;;;;;;;;;;;13.60;99.90;;;;;;6121046;23;19916;-84
2023/03/24 04:51:39;;;;;;;;;;;13.50;99.90;;;;;;6121074;23;19905;-84
2023/03/24 04:54:04;;;;;;;;;;;13.40;99.90;;;;;;6095159;23;20322;-83
2023/03/24 04:56:36;;;;;;;;;;;13.30;99.90;;;;;;6094958;23;19913;-83
2023/03/24 04:59:01;;;;;;;;;;;13.20;99.90;;;;;;6122037;23;19913;-83
2023/03/24 05:01:29;;;;;;;;;;;13.10;99.90;;;;;;6122253;23;19912;-83
2023/03/24 05:03:58;;;;;;;;;;;13.10;99.90;;;;;;6096111;23;19982;-85
2023/03/24 05:06:24;;;;;;;;;;;13.10;99.90;;;;;;6096666;23;19913;-83
2023/03/24 05:08:51;;;;;;;;;;;13.10;99.90;;;;;;6123022;23;20285;-82
2023/03/24 05:11:17;;;;;;;;;;;13.10;99.90;;;;;;6122137;23;19905;-83
2023/03/24 05:13:43;;;;;;;;;;;13.10;99.90;;;;;;6120907;23;19980;-83
2023/03/24 05:16:09;;;;;;;;;;;13.10;99.90;;;;;;6122193;23;19932;-83
2023/03/24 05:18:34;;;;;;;;;;;13.00;99.90;;;;;;6095985;23;19944;-83
2023/03/24 05:21:00;;;;;;;;;;;13.10;99.90;;;;;;6120266;23;19905;-84
2023/03/24 05:23:25;;;;;;;;;;;13.00;99.90;;;;;;6122224;23;19905;-83
2023/03/24 05:25:51;;;;;;;;;;;13.00;99.90;;;;;;6122139;23;19943;-83
2023/03/24 05:28:16;;;;;;;;;;;13.00;99.90;;;;;;6096670;23;19935;-83
2023/03/24 05:30:42;;;;;;;;;;;13.00;99.90;;;;;;6096114;23;19905;-83
2023/03/24 05:33:07;;;;;;;;;;;12.90;99.90;;;;;;6122411;23;19905;-84
2023/03/24 05:35:33;;;;;;;;;;;12.90;99.90;;;;;;6096715;23;20330;-84
2023/03/24 05:37:58;;;;;;;;;;;12.80;99.90;;;;;;6121182;23;19905;-83
2023/03/24 05:40:24;;;;;;;;;;;12.70;99.90;;;;;;6096764;23;19944;-83
2023/03/24 05:42:49;;;;;;;;;;;12.70;99.90;;;;;;6120762;23;19908;-84
2023/03/24 05:45:15;;;;;;;;;;;12.60;99.90;;;;;;6097522;23;19916;-84
2023/03/24 05:47:41;;;;;;;;;;;12.60;99.90;;;;;;6122395;23;19988;-84
2023/03/24 05:50:06;;;;;;;;;;;12.60;99.90;;;;;;6096590;23;19905;-84
2023/03/24 05:52:32;;;;;;;;;;;12.60;99.90;;;;;;6096488;23;19927;-83
2023/03/24 05:54:57;;;;;;;;;;;12.50;99.90;;;;;;6123546;23;19999;-83
2023/03/24 05:57:23;;;;;;;;;;;12.50;99.90;;;;;;6096267;23;20305;-83
2023/03/24 05:59:48;;;;;;;;;;;12.40;99.90;;;;;;6096483;23;19939;-84
2023/03/24 06:02:14;;;;;;;;;;;12.40;99.90;;;;;;6096458;23;19905;-81
2023/03/24 06:04:44;;;;;;;;;;;12.30;99.90;;;;;;6096896;23;19936;-83
2023/03/24 06:07:10;;;;;;;;;;;12.30;99.90;;;;;;6096347;23;19905;-84
2023/03/24 06:09:36;;;;;;;;;;;12.30;99.90;;;;;;6096941;23;19916;-84
2023/03/24 06:12:02;;;;;;;;;;;12.30;99.90;;;;;;6096728;23;19905;-83
2023/03/24 06:14:28;;;;;;;;;;;12.20;99.90;;;;;;6096327;23;19952;-83
2023/03/24 06:16:58;;;;;;;;;;;12.20;99.90;;;;;;6122712;23;19909;-83
2023/03/24 06:19:29;;;;;;;;;;;12.20;99.90;;;;;;6096618;23;19909;-83
2023/03/24 06:21:55;;;;;;;;;;;12.20;99.90;;;;;;6096633;23;19998;-83
2023/03/24 06:24:20;;;;;;;;;;;12.30;99.90;;;;;;6120624;23;20327;-83
2023/03/24 06:26:48;;;;;;;;;;;12.30;99.90;;;;;;6096774;23;19905;-83
2023/03/24 06:29:16;;;;;;;;;;;12.20;99.90;;;;;;6096258;23;20331;-83
2023/03/24 06:31:42;;;;;;;;;;;12.10;99.90;;;;;;6121996;23;19905;-83
2023/03/24 06:34:08;;;;;;;;;;;12.10;99.90;;;;;;6096167;23;19916;-83
2023/03/24 06:36:33;;;;;;;;;;;11.90;99.90;;;;;;6122075;23;19905;-83
2023/03/24 06:39:04;;;;;;;;;;;11.80;99.90;;;;;;6122003;23;20031;-83
2023/03/24 06:41:30;;;;;;;;;;;11.70;99.90;;;;;;6121719;23;19988;-83
2023/03/24 06:43:56;;;;;;;;;;;11.80;99.90;;;;;;6096149;23;19952;-80
2023/03/24 06:46:21;;;;;;;;;;;11.80;99.90;;;;;;6096598;23;20323;-83
2023/03/24 06:48:47;;;;;;;;;;;11.80;99.90;;;;;;6122616;23;19905;-84
2023/03/24 06:51:13;;;;;;;;;;;11.80;99.90;;;;;;6096073;23;19909;-83
2023/03/24 06:53:40;;;;;;;;;;;11.80;99.90;;;;;;6096265;23;19913;-83
2023/03/24 06:56:06;;;;;;;;;;;11.90;99.90;;;;;;6121785;23;19905;-84
2023/03/24 08:03:29;;;;;;;;;;;13.10;99.90;;;;;;6112702;23;19928;-81
2023/03/24 08:06:04;;;;;;;;;;;13.10;99.90;;;;;;6116554;23;19909;-80
2023/03/24 08:08:35;;;;;;;;;;;13.10;99.90;;;;;;6121146;23;19905;-80
2023/03/24 08:11:04;;;;;;;;;;;13.10;99.90;;;;;;6118907;23;19947;-79
2023/03/24 08:13:30;;;;;;;;;;;13.10;99.90;;;;;;6120261;23;19916;-79
2023/03/24 08:15:56;;;;;;;;;;;13.10;99.90;;;;;;6122385;22;20180;-85
2023/03/24 08:18:24;;;;;;;;;;;13.00;99.90;;;;;;6102165;23;19916;-85
2023/03/24 08:20:53;;;;;;;;;;;13.00;99.90;;;;;;6127335;23;19909;-85
2023/03/24 08:23:21;;;;;;;;;;;12.90;99.90;;;;;;6100929;23;19905;-85
2023/03/24 08:25:48;;;;;;;;;;;13.00;99.90;;;;;;6103916;23;20027;-85
2023/03/24 08:28:13;;;;;;;;;;;13.20;99.90;;;;;;6104103;23;19905;-84
2023/03/24 08:30:42;;;;;;;;;;;13.50;99.90;;;;;;6102294;23;19916;-84
2023/03/24 08:33:11;;;;;;;;;;;13.90;99.90;;;;;;6100929;23;19905;-83
2023/03/24 08:35:37;;;;;;;;;;;14.20;99.90;;;;;;6126135;23;19959;-82
2023/03/24 08:38:03;;;;;;;;;;;14.10;99.90;;;;;;6100280;23;20342;-83
2023/03/24 08:40:28;;;;;;;;;;;14.00;99.90;;;;;;6100108;23;19916;-83
2023/03/24 08:42:55;;;;;;;;;;;14.00;99.90;;;;;;6098650;23;19909;-82
2023/03/24 08:45:22;;;;;;;;;;;14.20;99.90;;;;;;6125257;23;20277;-82
2023/03/24 08:47:49;;;;;;;;;;;14.60;99.90;;;;;;6098892;23;19951;-83
2023/03/24 08:50:14;;;;;;;;;;;14.80;99.90;;;;;;6098614;23;19909;-83
2023/03/24 08:52:40;;;;;;;;;;;14.90;99.90;;;;;;6124864;23;19957;-84
2023/03/24 08:55:08;;;;;;;;;;;15.10;99.90;;;;;;6099094;23;19933;-82
2023/03/24 08:57:33;;;;;;;;;;;14.90;99.90;;;;;;6098783;23;19905;-84
2023/03/24 08:59:59;;;;;;;;;;;14.80;99.90;;;;;;6121851;23;19909;-83
2023/03/24 09:02:25;;;;;;;;;;;14.70;99.90;;;;;;6123423;23;19912;-83
2023/03/24 09:04:53;;;;;;;;;;;14.60;99.90;;;;;;6124608;23;19913;-83
2023/03/24 09:07:19;;;;;;;;;;;14.60;99.90;;;;;;6124380;23;19917;-83
2023/03/24 09:09:44;;;;;;;;;;;14.50;99.90;;;;;;6122573;23;19905;-83
2023/03/24 09:12:10;;;;;;;;;;;14.40;99.90;;;;;;6097057;23;20211;-83
2023/03/24 09:14:35;;;;;;;;;;;14.30;99.90;;;;;;6124813;23;19905;-83
2023/03/24 09:17:01;;;;;;;;;;;14.40;99.90;;;;;;6097392;23;19913;-83
2023/03/24 09:19:27;;;;;;;;;;;14.50;99.90;;;;;;6096964;23;19964;-82
2023/03/24 09:21:52;;;;;;;;;;;14.70;99.90;;;;;;6097359;23;20273;-84
2023/03/24 09:24:18;;;;;;;;;;;14.70;99.90;;;;;;6097382;23;19916;-83
2023/03/24 09:26:43;;;;;;;;;;;14.70;99.90;;;;;;6123366;23;19905;-83
2023/03/24 09:29:09;;;;;;;;;;;14.90;99.90;;;;;;6123755;23;19913;-84
2023/03/24 09:31:34;;;;;;;;;;;15.20;99.90;;;;;;6097023;23;19952;-83
2023/03/24 09:34:00;;;;;;;;;;;15.30;99.90;;;;;;6097528;23;19927;-83
2023/03/24 09:36:26;;;;;;;;;;;15.30;99.90;;;;;;6097327;23;19978;-83
2023/03/24 09:38:51;;;;;;;;;;;15.60;99.90;;;;;;6097372;23;19912;-83
2023/03/24 09:41:18;;;;;;;;;;;16.80;99.90;;;;;;6097569;23;19905;-83
2023/03/24 09:44:04;;;;;;;;;;;17.50;99.90;;;;;;6122939;23;19916;-84
2023/03/24 09:46:39;;;;;;;;;;;18.30;99.90;;;;;;6097061;23;19998;-83
2023/03/24 09:49:05;;;;;;;;;;;18.40;99.90;;;;;;6122000;23;19905;-84
2023/03/24 09:51:33;;;;;;;;;;;18.70;99.90;;;;;;6096996;23;19909;-84
2023/03/24 09:54:08;;;;;;;;;;;19.00;99.90;;;;;;6097446;23;19955;-84
2023/03/24 09:56:40;;;;;;;;;;;19.80;99.90;;;;;;6097283;23;19906;-83
2023/03/24 09:59:10;;;;;;;;;;;19.10;99.90;;;;;;6097692;23;19905;-84
2023/03/24 10:01:35;;;;;;;;;;;18.50;99.90;;;;;;6123665;23;19987;-83
2023/03/24 10:04:01;;;;;;;;;;;19.00;99.90;;;;;;6097054;23;19951;-81
2023/03/24 10:06:28;;;;;;;;;;;20.10;99.90;;;;;;6097253;23;19952;-81
2023/03/24 10:08:54;;;;;;;;;;;20.80;97.60;;;;;;6122986;23;19943;-83
2023/03/24 10:11:19;;;;;;;;;;;21.70;95.10;;;;;;6096899;23;20322;-84
2023/03/24 10:14:03;;;;;;;;;;;22.90;92.20;;;;;;6123902;23;19933;-84
2023/03/24 10:16:35;;;;;;;;;;;23.20;89.70;;;;;;6122865;23;19937;-84
2023/03/24 10:19:03;;;;;;;;;;;23.70;89.20;;;;;;6225085;23;19912;-84
2023/03/24 10:21:31;;;;;;;;;;;23.00;85.40;;;;;;6224747;23;20246;-83
2023/03/24 10:24:01;;;;;;;;;;;21.80;88.90;;;;;;6122791;23;19996;-83
2023/03/24 10:26:35;;;;;;;;;;;20.20;88.00;;;;;;6224855;22;19984;-81
2023/03/24 10:29:04;;;;;;;;;;;21.50;91.90;;;;;;6122883;23;19952;-84
2023/03/24 10:31:31;;;;;;;;;;;23.00;84.00;;;;;;6224321;23;19909;-83
2023/03/24 10:33:57;;;;;;;;;;;23.50;79.00;;;;;;6123109;23;19935;-84
2023/03/24 10:36:23;;;;;;;;;;;24.10;75.40;;;;;;6224719;22;19905;-83
2023/03/24 10:38:49;;;;;;;;;;;23.90;70.40;;;;;;6123753;23;19909;-82
2023/03/24 10:41:16;;;;;;;;;;;22.90;73.80;;;;;;6225282;23;19912;-82
2023/03/24 10:43:43;;;;;;;;;;;23.80;72.20;;;;;;6224948;23;19912;-83
2023/03/24 10:46:11;;;;;;;;;;;24.30;68.00;;;;;;6224653;22;19909;-82
2023/03/24 10:48:40;;;;;;;;;;;23.90;65.60;;;;;;6116474;23;19905;-82
2023/03/24 10:51:06;;;;;;;;;;;24.00;66.10;;;;;;6222302;23;19905;-82
2023/03/24 10:53:34;;;;;;;;;;;24.20;63.40;;;;;;6249697;22;19950;-82
2023/03/24 10:56:00;;;;;;;;;;;24.20;62.10;;;;;;6249152;22;20092;-82
2023/03/24 10:58:36;;;;;;;;;;;24.40;64.80;;;;;;6249031;22;19959;-83
2023/03/24 11:01:02;;;;;;;;;;;24.00;62.10;;;;;;6222527;23;20401;-83
2023/03/24 11:03:29;;;;;;;;;;;22.00;65.60;;;;;;6121771;23;19940;-83
2023/03/24 11:06:00;;;;;;;;;;;21.80;67.50;;;;;;6122367;23;19963;-82
2023/03/24 11:08:30;;;;;;;;;;;22.10;67.50;;;;;;6120346;23;19905;-82
2023/03/24 11:10:56;;;;;;;;;;;22.00;69.60;;;;;;6224034;23;19931;-82
2023/03/24 11:13:21;;;;;;;;;;;22.60;68.40;;;;;;6224021;23;19905;-83
2023/03/24 11:16:06;;;;;;;;;;;21.60;68.40;;;;;;6221072;23;19909;-85
2023/03/24 11:18:32;;;;;;;;;;;20.80;71.20;;;;;;6222573;23;19905;-83
2023/03/24 11:21:05;;;;;;;;;;;19.60;76.20;;;;;;6223109;23;19916;-82
2023/03/24 11:23:32;;;;;;;;;;;18.90;82.10;;;;;;6224272;23;19909;-83
2023/03/24 11:26:00;;;;;;;;;;;18.70;90.30;;;;;;6224313;22;19905;-81
2023/03/24 11:28:26;;;;;;;;;;;18.30;91.90;;;;;;6124732;23;19905;-83
2023/03/24 11:30:52;;;;;;;;;;;18.30;94.00;;;;;;6122886;23;19951;-83
2023/03/24 11:33:41;;;;;;;;;;;18.60;93.40;;;;;;6223478;23;19912;-82
2023/03/24 11:36:25;;;;;;;;;;;18.80;95.60;;;;;;6207642;22;19905;-82
2023/03/24 11:38:57;;;;;;;;;;;18.50;95.90;;;;;;6122644;23;19905;-82
2023/03/24 11:41:23;;;;;;;;;;;17.80;95.40;;;;;;6222723;23;19906;-79
2023/03/24 11:43:48;;;;;;;;;;;17.50;97.40;;;;;;6223313;23;19913;-80
2023/03/24 11:46:16;;;;;;;;;;;17.60;99.90;;;;;;6121942;23;20216;-82
2023/03/24 11:48:51;;;;;;;;;;;20.20;95.50;;;;;;6222201;23;19905;-82
2023/03/24 11:51:24;;;;;;;;;;;21.40;91.00;;;;;;6121456;23;19909;-82
2023/03/24 11:53:51;;;;;;;;;;;22.20;87.70;;;;;;6121955;23;19988;-82
2023/03/24 11:56:29;;;;;;;;;;;22.20;82.70;;;;;;6223027;22;19905;-82
2023/03/24 11:59:05;;;;;;;;;;;21.20;83.60;;;;;;6121322;23;20350;-82
2023/03/24 12:01:35;;;;;;;;;;;20.50;82.90;;;;;;6120703;23;19975;-83
2023/03/24 12:04:21;;;;;;;;;;;20.60;88.90;;;;;;6222628;23;19913;-82
2023/03/24 12:07:00;;;;;;;;;;;21.20;84.40;;;;;;6186972;23;20238;-83
2023/03/24 12:09:37;;;;;;;;;;;21.30;77.80;;;;;;6226372;23;19911;-82
2023/03/24 12:12:14;;;;;;;;;;;21.70;78.00;;;;;;6123499;23;19911;-84
2023/03/24 12:14:46;;;;;;;;;;;20.80;73.90;;;;;;6226180;23;19958;-82
2023/03/24 12:17:13;;;;;;;;;;;20.10;81.10;;;;;;6225833;22;20292;-83
2023/03/24 12:19:57;;;;;;;;;;;20.60;78.10;;;;;;6225726;23;19913;-84
2023/03/24 12:22:25;;;;;;;;;;;20.00;76.10;;;;;;6225461;23;19905;-83
2023/03/24 12:25:03;;;;;;;;;;;20.90;79.40;;;;;;6123858;23;19924;-84
2023/03/24 12:27:35;;;;;;;;;;;22.90;72.00;;;;;;6225594;22;19909;-83
2023/03/24 12:30:12;;;;;;;;;;;24.20;71.50;;;;;;6225840;23;19936;-84
2023/03/24 12:32:46;;;;;;;;;;;24.90;63.70;;;;;;6224739;23;19905;-82
2023/03/24 12:35:15;;;;;;;;;;;26.60;64.20;;;;;;6124473;23;19909;-81
2023/03/24 12:37:46;;;;;;;;;;;28.10;56.50;;;;;;6123658;23;19905;-81
2023/03/24 12:40:25;;;;;;;;;;;25.90;53.80;;;;;;6225670;23;20245;-83
2023/03/24 12:42:57;;;;;;;;;;;23.60;56.70;;;;;;6123111;23;19912;-83
2023/03/24 12:45:25;;;;;;;;;;;25.20;58.50;;;;;;6224982;23;19913;-83
2023/03/24 12:48:06;;;;;;;;;;;26.20;56.50;;;;;;6224824;22;20364;-82
2023/03/24 12:50:46;;;;;;;;;;;25.70;54.20;;;;;;6225380;23;20249;-80
2023/03/24 12:53:25;;;;;;;;;;;26.10;53.50;;;;;;6224816;23;19905;-81
2023/03/24 12:55:53;;;;;;;;;;;26.20;52.10;;;;;;6224970;22;19987;-82
2023/03/24 12:58:21;;;;;;;;;;;24.40;52.70;;;;;;6225364;23;19971;-83
2023/03/24 13:01:02;;;;;;;;;;;22.80;54.60;;;;;;6123264;23;19905;-82
2023/03/24 13:03:32;;;;;;;;;;;23.40;55.00;;;;;;6224914;23;19905;-82
2023/03/24 13:06:03;;;;;;;;;;;22.70;55.80;;;;;;6222822;22;19913;-82
2023/03/24 13:08:29;;;;;;;;;;;22.40;54.60;;;;;;6225038;23;20339;-82
2023/03/24 13:11:02;;;;;;;;;;;21.60;56.70;;;;;;6249903;22;19919;-82
2023/03/24 13:13:30;;;;;;;;;;;20.60;56.50;;;;;;6123035;23;20007;-83
2023/03/24 13:15:59;;;;;;;;;;;20.50;58.90;;;;;;6122938;23;20522;-82
2023/03/24 13:18:28;;;;;;;;;;;21.80;58.70;;;;;;6120999;23;19905;-82
2023/03/24 13:21:14;;;;;;;;;;;23.30;56.90;;;;;;6224035;23;19909;-82
2023/03/24 13:23:39;;;;;;;;;;;24.00;54.90;;;;;;6122747;23;19957;-82
2023/03/24 13:26:28;;;;;;;;;;;22.70;54.70;;;;;;6224335;22;19929;-82
2023/03/24 13:29:03;;;;;;;;;;;20.90;54.70;;;;;;6208467;23;19905;-82
2023/03/24 13:31:48;;;;;;;;;;;19.80;56.80;;;;;;6122349;23;19916;-81
2023/03/24 13:34:21;;;;;;;;;;;19.60;59.30;;;;;;6223584;23;19905;-82
2023/03/24 13:36:49;;;;;;;;;;;21.50;58.40;;;;;;6224504;22;19981;-82
2023/03/24 13:39:22;;;;;;;;;;;21.50;58.00;;;;;;6229699;23;19916;-81
2023/03/24 13:41:50;;;;;;;;;;;22.10;57.20;;;;;;6235707;23;19913;-83
2023/03/24 13:44:21;;;;;;;;;;;22.70;57.40;;;;;;6126418;23;19909;-82
2023/03/24 13:47:04;;;;;;;;;;;22.40;55.40;;;;;;6228332;22;20362;-82
2023/03/24 13:49:31;;;;;;;;;;;21.40;56.70;;;;;;6228156;23;19909;-82
2023/03/24 13:51:56;;;;;;;;;;;20.10;58.00;;;;;;6227150;23;19905;-82
2023/03/24 13:54:24;;;;;;;;;;;20.00;58.30;;;;;;6125352;23;19935;-82
2023/03/24 13:57:07;;;;;;;;;;;20.50;59.20;;;;;;6227690;22;20323;-82
2023/03/24 13:59:52;;;;;;;;;;;20.60;57.80;;;;;;6253046;22;20242;-82
2023/03/24 14:02:20;;;;;;;;;;;20.30;58.00;;;;;;6125155;23;19993;-82
2023/03/24 14:04:47;;;;;;;;;;;19.20;59.60;;;;;;6227558;23;19909;-83
2023/03/24 14:07:29;;;;;;;;;;;18.50;62.50;;;;;;6227050;22;19905;-83
2023/03/24 14:10:10;;;;;;;;;;;18.30;67.10;;;;;;6226957;23;19905;-83
2023/03/24 14:12:36;;;;;;;;;;;17.70;80.10;;;;;;6226532;23;19909;-82
2023/03/24 14:15:13;;;;;;;;;;;17.20;97.70;;;;;;6122766;23;19905;-81
2023/03/24 14:17:43;;;;;;;;;;;17.10;99.90;;;;;;6224663;22;20079;-81
2023/03/24 14:20:10;;;;;;;;;;;17.10;99.90;;;;;;6122733;23;19909;-82
2023/03/24 14:22:40;;;;;;;;;;;17.10;99.90;;;;;;6223868;23;19985;-81
2023/03/24 14:25:15;;;;;;;;;;;17.00;99.90;;;;;;6122181;23;20323;-82
2023/03/24 14:27:41;;;;;;;;;;;16.70;99.90;;;;;;6122096;23;19905;-81
2023/03/24 14:30:10;;;;;;;;;;;16.60;99.90;;;;;;6224048;23;20353;-82
2023/03/24 14:32:39;;;;;;;;;;;17.10;99.90;;;;;;6224066;23;19919;-81
2023/03/24 14:35:17;;;;;;;;;;;18.20;99.90;;;;;;6224889;23;19917;-81
2023/03/24 14:37:57;;;;;;;;;;;19.40;99.90;;;;;;6122059;23;19905;-81
2023/03/24 14:40:24;;;;;;;;;;;19.40;97.70;;;;;;6224777;23;19935;-81
2023/03/24 14:42:55;;;;;;;;;;;20.30;95.10;;;;;;6223452;23;19937;-81
2023/03/24 14:45:38;;;;;;;;;;;21.50;90.70;;;;;;6223833;23;19913;-82
2023/03/24 14:48:05;;;;;;;;;;;22.60;79.40;;;;;;6223595;23;19905;-81
2023/03/24 14:50:31;;;;;;;;;;;23.50;76.90;;;;;;6122251;23;19912;-81
2023/03/24 14:52:58;;;;;;;;;;;24.50;70.20;;;;;;6224382;23;19905;-81
2023/03/24 14:55:24;;;;;;;;;;;24.80;64.80;;;;;;6269161;22;20293;-82
2023/03/24 14:57:55;;;;;;;;;;;24.70;60.20;;;;;;6142786;23;19905;-82
2023/03/24 15:00:26;;;;;;;;;;;24.90;61.50;;;;;;6243371;23;19905;-82
2023/03/24 15:02:55;;;;;;;;;;;24.80;57.60;;;;;;6142523;23;19905;-82
2023/03/24 15:05:30;;;;;;;;;;;24.90;57.80;;;;;;6234493;23;19909;-80
2023/03/24 15:08:20;;;;;;;;;;;24.70;58.00;;;;;;6127500;23;19909;-82
2023/03/24 15:11:03;;;;;;;;;;;25.30;57.00;;;;;;6228718;23;19983;-83
2023/03/24 15:13:34;;;;;;;;;;;26.20;56.20;;;;;;6126993;23;19909;-83
2023/03/24 15:16:00;;;;;;;;;;;25.80;54.50;;;;;;6228829;22;20250;-82
2023/03/24 15:18:26;;;;;;;;;;;25.30;55.10;;;;;;6228147;23;19954;-83
2023/03/24 15:20:52;;;;;;;;;;;24.10;55.40;;;;;;6227791;23;19909;-82
2023/03/24 15:23:24;;;;;;;;;;;24.00;56.60;;;;;;6126273;23;19953;-82
2023/03/24 15:25:50;;;;;;;;;;;22.90;57.80;;;;;;6125895;23;20037;-82
2023/03/24 15:28:20;;;;;;;;;;;20.90;60.90;;;;;;6227656;23;20314;-82
2023/03/24 15:30:49;;;;;;;;;;;19.90;66.80;;;;;;6125915;23;19905;-82
2023/03/24 15:33:15;;;;;;;;;;;19.30;74.20;;;;;;6126047;23;19905;-82
2023/03/24 15:35:42;;;;;;;;;;;19.10;79.10;;;;;;6125697;23;19932;-82
2023/03/24 15:38:16;;;;;;;;;;;19.40;82.10;;;;;;6227497;23;19905;-82
2023/03/24 15:40:51;;;;;;;;;;;19.20;83.00;;;;;;6227032;23;19958;-82
2023/03/24 15:43:20;;;;;;;;;;;18.90;86.50;;;;;;6226863;23;19951;-82
2023/03/24 15:45:49;;;;;;;;;;;18.40;90.90;;;;;;6125519;23;19912;-82
2023/03/24 15:48:20;;;;;;;;;;;18.00;93.10;;;;;;6227138;23;19940;-82
2023/03/24 15:50:56;;;;;;;;;;;17.90;96.50;;;;;;6226339;23;19932;-82
2023/03/24 15:53:24;;;;;;;;;;;17.60;99.40;;;;;;6125537;23;19912;-82
2023/03/24 15:56:00;;;;;;;;;;;17.30;99.90;;;;;;6227427;23;19905;-82
2023/03/24 15:58:27;;;;;;;;;;;16.70;99.90;;;;;;6125320;23;19955;-82
2023/03/24 16:00:56;;;;;;;;;;;16.20;99.90;;;;;;6226460;23;19905;-82
2023/03/24 16:03:25;;;;;;;;;;;15.60;99.90;;;;;;6226887;23;19984;-83
2023/03/24 16:05:51;;;;;;;;;;;14.70;99.90;;;;;;6227433;23;19909;-83
2023/03/24 16:08:37;;;;;;;;;;;13.90;99.90;;;;;;6227007;23;19905;-84
2023/03/24 16:11:12;;;;;;;;;;;13.30;99.90;;;;;;6125293;23;19975;-83
2023/03/24 16:13:39;;;;;;;;;;;12.70;99.90;;;;;;6227692;23;20247;-83
2023/03/24 16:16:14;;;;;;;;;;;12.60;99.90;;;;;;6226596;22;20360;-83
2023/03/24 16:18:43;;;;;;;;;;;12.70;99.90;;;;;;6226866;23;20381;-83
2023/03/24 16:21:19;;;;;;;;;;;12.60;99.90;;;;;;6225960;23;19909;-83
2023/03/24 16:23:46;;;;;;;;;;;12.60;99.90;;;;;;6119107;23;19948;-80
2023/03/24 16:26:16;;;;;;;;;;;12.40;99.90;;;;;;6224142;22;20254;-82
2023/03/24 16:28:41;;;;;;;;;;;12.30;99.90;;;;;;6225849;23;19940;-82
2023/03/24 16:31:12;;;;;;;;;;;12.10;99.90;;;;;;6122946;23;19959;-82
2023/03/24 16:33:38;;;;;;;;;;;12.00;99.90;;;;;;6225784;23;19958;-82
2023/03/24 16:36:04;;;;;;;;;;;11.90;99.90;;;;;;6225371;22;19909;-81
2023/03/24 16:38:31;;;;;;;;;;;11.70;99.90;;;;;;6225405;23;19962;-81